Cobalt, Idaho
Current Conditions -  °F | °C
As of 7:55 PM on Thursday 27 Nov 2014 (Local Time) from KSMN Reporting Station
Broken Clouds Broken Clouds  
Wind Chill: 43°   Ceiling: 4600
Heat Index: 48°   Visibility: 10mi
Dew Point: 36°   Wind: 13mph
Humidity: 62%   Direction: 200°SSW
Pressure: 29.99"   Gusts: 16mph
Location:  45°N, 114.34°W
Report Text: KSMN 280255Z AUTO 20011G14KT 10SM FEW029 BKN046 09/02 A2999 RMK AO1 57007
Loading
Personal Weather Stations






























Interactive Weather Map New forecast layout! Learn more

10-Day Weather Forecast

Advertisements
Track Severe Weather on mobile